sensor_id;sensor_type;location;lat;lon;timestamp;pressure;altitude;pressure_sealevel;temperature;humidity
81372;BME280;70827;52.206;5.294;2023-10-08T00:01:16;102177.25;;;17.35;82.72
81372;BME280;70827;52.206;5.294;2023-10-08T00:03:45;102198.31;;;17.30;83.01
81372;BME280;70827;52.206;5.294;2023-10-08T00:06:10;102188.69;;;17.31;82.75
81372;BME280;70827;52.206;5.294;2023-10-08T00:08:36;102186.75;;;17.40;82.50
81372;BME280;70827;52.206;5.294;2023-10-08T00:11:02;102203.53;;;17.32;83.00
81372;BME280;70827;52.206;5.294;2023-10-08T00:13:27;102210.53;;;17.30;83.14
81372;BME280;70827;52.206;5.294;2023-10-08T00:15:53;102194.75;;;17.34;83.31
81372;BME280;70827;52.206;5.294;2023-10-08T00:18:19;102185.16;;;17.33;83.23
81372;BME280;70827;52.206;5.294;2023-10-08T00:20:47;102191.13;;;17.40;82.82
81372;BME280;70827;52.206;5.294;2023-10-08T00:23:13;102195.97;;;17.58;82.29
81372;BME280;70827;52.206;5.294;2023-10-08T00:25:39;102191.16;;;17.38;82.83
81372;BME280;70827;52.206;5.294;2023-10-08T00:28:05;102178.84;;;17.42;82.64
81372;BME280;70827;52.206;5.294;2023-10-08T00:30:30;102189.50;;;17.34;83.48
81372;BME280;70827;52.206;5.294;2023-10-08T00:32:56;102183.44;;;17.32;83.60
81372;BME280;70827;52.206;5.294;2023-10-08T00:35:21;102184.28;;;17.33;83.59
81372;BME280;70827;52.206;5.294;2023-10-08T00:37:50;102187.84;;;17.30;83.44
81372;BME280;70827;52.206;5.294;2023-10-08T00:40:15;102178.97;;;17.36;83.02
81372;BME280;70827;52.206;5.294;2023-10-08T00:42:41;102152.72;;;17.37;82.54
81372;BME280;70827;52.206;5.294;2023-10-08T00:45:08;102163.22;;;17.37;82.98
81372;BME280;70827;52.206;5.294;2023-10-08T00:47:33;102155.50;;;17.31;83.21
81372;BME280;70827;52.206;5.294;2023-10-08T00:49:59;102145.19;;;17.22;83.64
81372;BME280;70827;52.206;5.294;2023-10-08T00:52:25;102140.78;;;17.24;83.60
81372;BME280;70827;52.206;5.294;2023-10-08T00:54:53;102137.56;;;17.10;84.13
81372;BME280;70827;52.206;5.294;2023-10-08T00:57:20;102143.69;;;17.09;84.17
81372;BME280;70827;52.206;5.294;2023-10-08T00:59:46;102137.78;;;17.01;84.78
81372;BME280;70827;52.206;5.294;2023-10-08T01:02:12;102136.97;;;16.97;84.87
81372;BME280;70827;52.206;5.294;2023-10-08T01:04:38;102143.06;;;16.98;84.66
81372;BME280;70827;52.206;5.294;2023-10-08T01:07:05;102137.97;;;16.90;85.22
81372;BME280;70827;52.206;5.294;2023-10-08T01:09:30;102136.91;;;17.00;84.91
81372;BME280;70827;52.206;5.294;2023-10-08T01:12:12;102135.38;;;16.89;85.17
81372;BME280;70827;52.206;5.294;2023-10-08T01:14:38;102138.91;;;16.88;85.58
81372;BME280;70827;52.206;5.294;2023-10-08T01:17:04;102140.34;;;17.02;84.74
81372;BME280;70827;52.206;5.294;2023-10-08T01:19:29;102141.78;;;17.19;83.97
81372;BME280;70827;52.206;5.294;2023-10-08T01:21:55;102139.03;;;17.23;83.76
81372;BME280;70827;52.206;5.294;2023-10-08T01:24:23;102142.78;;;17.11;83.83
81372;BME280;70827;52.206;5.294;2023-10-08T01:26:49;102148.06;;;17.08;83.89
81372;BME280;70827;52.206;5.294;2023-10-08T01:29:14;102169.19;;;17.01;84.25
81372;BME280;70827;52.206;5.294;2023-10-08T01:31:40;102172.78;;;16.97;84.69
81372;BME280;70827;52.206;5.294;2023-10-08T01:34:05;102171.53;;;17.16;83.79
81372;BME280;70827;52.206;5.294;2023-10-08T01:36:31;102172.28;;;17.21;83.30
81372;BME280;70827;52.206;5.294;2023-10-08T01:38:57;102165.63;;;17.05;83.92
81372;BME280;70827;52.206;5.294;2023-10-08T01:41:26;102180.44;;;17.06;84.15
81372;BME280;70827;52.206;5.294;2023-10-08T01:43:52;102195.34;;;17.04;84.29
81372;BME280;70827;52.206;5.294;2023-10-08T01:46:17;102189.59;;;17.28;82.93
81372;BME280;70827;52.206;5.294;2023-10-08T01:48:43;102196.91;;;17.12;83.64
81372;BME280;70827;52.206;5.294;2023-10-08T01:51:09;102211.63;;;17.20;83.59
81372;BME280;70827;52.206;5.294;2023-10-08T01:53:35;102212.84;;;17.02;84.26
81372;BME280;70827;52.206;5.294;2023-10-08T01:56:01;102212.50;;;17.20;83.68
81372;BME280;70827;52.206;5.294;2023-10-08T01:58:29;102222.94;;;17.22;83.25
81372;BME280;70827;52.206;5.294;2023-10-08T02:00:55;102225.72;;;17.14;83.58
81372;BME280;70827;52.206;5.294;2023-10-08T02:03:21;102225.91;;;17.03;84.87
81372;BME280;70827;52.206;5.294;2023-10-08T02:05:46;102216.28;;;17.04;84.40
81372;BME280;70827;52.206;5.294;2023-10-08T02:08:13;102212.03;;;16.98;84.68
81372;BME280;70827;52.206;5.294;2023-10-08T02:10:39;102223.19;;;17.08;84.38
81372;BME280;70827;52.206;5.294;2023-10-08T02:13:05;102230.63;;;17.29;83.19
81372;BME280;70827;52.206;5.294;2023-10-08T02:15:34;102209.50;;;17.38;82.46
81372;BME280;70827;52.206;5.294;2023-10-08T02:17:59;102216.63;;;17.32;82.72
81372;BME280;70827;52.206;5.294;2023-10-08T02:20:25;102195.13;;;17.14;83.71
81372;BME280;70827;52.206;5.294;2023-10-08T02:22:50;102196.13;;;17.07;83.40
81372;BME280;70827;52.206;5.294;2023-10-08T02:25:16;102212.78;;;17.05;83.82
81372;BME280;70827;52.206;5.294;2023-10-08T02:27:42;102212.25;;;17.32;82.82
81372;BME280;70827;52.206;5.294;2023-10-08T02:30:08;102229.00;;;17.24;83.03
81372;BME280;70827;52.206;5.294;2023-10-08T02:32:37;102228.69;;;16.94;83.78
81372;BME280;70827;52.206;5.294;2023-10-08T02:35:03;102203.72;;;17.21;82.81
81372;BME280;70827;52.206;5.294;2023-10-08T02:37:28;102216.91;;;17.18;82.94
81372;BME280;70827;52.206;5.294;2023-10-08T02:39:54;102206.41;;;17.18;82.58
81372;BME280;70827;52.206;5.294;2023-10-08T02:42:19;102193.59;;;17.04;83.29
81372;BME280;70827;52.206;5.294;2023-10-08T02:44:45;102176.34;;;17.36;82.47
81372;BME280;70827;52.206;5.294;2023-10-08T02:47:11;102219.09;;;16.93;83.44
81372;BME280;70827;52.206;5.294;2023-10-08T02:49:40;102235.91;;;16.81;84.67
81372;BME280;70827;52.206;5.294;2023-10-08T02:52:05;102220.16;;;17.31;82.29
81372;BME280;70827;52.206;5.294;2023-10-08T02:54:31;102234.22;;;17.25;82.35
81372;BME280;70827;52.206;5.294;2023-10-08T02:56:57;102225.63;;;17.19;82.31
81372;BME280;70827;52.206;5.294;2023-10-08T02:59:23;102208.88;;;17.26;82.29
81372;BME280;70827;52.206;5.294;2023-10-08T03:01:48;102217.03;;;17.10;82.42
81372;BME280;70827;52.206;5.294;2023-10-08T03:04:14;102229.53;;;16.98;83.46
81372;BME280;70827;52.206;5.294;2023-10-08T03:06:42;102202.47;;;16.96;83.21
81372;BME280;70827;52.206;5.294;2023-10-08T03:09:08;102215.25;;;17.12;82.65
81372;BME280;70827;52.206;5.294;2023-10-08T03:11:34;102223.63;;;16.85;83.51
81372;BME280;70827;52.206;5.294;2023-10-08T03:13:59;102221.91;;;17.29;82.02
81372;BME280;70827;52.206;5.294;2023-10-08T03:16:25;102226.69;;;17.08;82.57
81372;BME280;70827;52.206;5.294;2023-10-08T03:18:50;102225.47;;;17.26;81.95
81372;BME280;70827;52.206;5.294;2023-10-08T03:21:16;102206.38;;;17.20;82.02
81372;BME280;70827;52.206;5.294;2023-10-08T03:23:44;102198.34;;;17.27;81.70
81372;BME280;70827;52.206;5.294;2023-10-08T03:26:10;102217.88;;;17.14;82.24
81372;BME280;70827;52.206;5.294;2023-10-08T03:28:35;102217.75;;;16.72;83.85
81372;BME280;70827;52.206;5.294;2023-10-08T03:31:01;102228.97;;;16.79;83.59
81372;BME280;70827;52.206;5.294;2023-10-08T03:33:28;102263.00;;;16.80;83.45
81372;BME280;70827;52.206;5.294;2023-10-08T03:35:53;102274.03;;;16.99;83.59
81372;BME280;70827;52.206;5.294;2023-10-08T03:38:19;102262.81;;;16.90;82.87
81372;BME280;70827;52.206;5.294;2023-10-08T03:40:49;102258.78;;;16.72;83.54
81372;BME280;70827;52.206;5.294;2023-10-08T03:43:14;102250.28;;;16.54;84.49
81372;BME280;70827;52.206;5.294;2023-10-08T03:45:40;102263.28;;;16.61;84.03
81372;BME280;70827;52.206;5.294;2023-10-08T03:48:06;102268.03;;;16.37;84.15
81372;BME280;70827;52.206;5.294;2023-10-08T03:50:32;102277.97;;;16.11;84.52
81372;BME280;70827;52.206;5.294;2023-10-08T03:52:57;102292.41;;;16.39;83.88
81372;BME280;70827;52.206;5.294;2023-10-08T03:55:23;102288.19;;;16.29;83.70
81372;BME280;70827;52.206;5.294;2023-10-08T03:57:51;102289.38;;;16.07;84.14
81372;BME280;70827;52.206;5.294;2023-10-08T04:00:17;102309.03;;;16.37;83.08
81372;BME280;70827;52.206;5.294;2023-10-08T04:02:42;102328.16;;;15.74;84.31
81372;BME280;70827;52.206;5.294;2023-10-08T04:05:08;102339.44;;;15.76;83.59
81372;BME280;70827;52.206;5.294;2023-10-08T04:07:34;102333.41;;;15.71;82.71
81372;BME280;70827;52.206;5.294;2023-10-08T04:10:00;102345.16;;;15.29;81.96
81372;BME280;70827;52.206;5.294;2023-10-08T04:12:26;102345.28;;;15.14;81.51
81372;BME280;70827;52.206;5.294;2023-10-08T04:14:54;102335.34;;;15.52;79.89
81372;BME280;70827;52.206;5.294;2023-10-08T04:17:19;102332.47;;;15.77;79.07
81372;BME280;70827;52.206;5.294;2023-10-08T04:19:45;102335.34;;;15.51;79.14
81372;BME280;70827;52.206;5.294;2023-10-08T04:22:10;102342.19;;;15.67;78.77
81372;BME280;70827;52.206;5.294;2023-10-08T04:24:36;102332.00;;;15.37;79.37
81372;BME280;70827;52.206;5.294;2023-10-08T04:27:02;102332.56;;;15.71;78.91
81372;BME280;70827;52.206;5.294;2023-10-08T04:29:27;102322.72;;;15.91;77.37
81372;BME280;70827;52.206;5.294;2023-10-08T04:31:56;102316.88;;;15.69;78.38
81372;BME280;70827;52.206;5.294;2023-10-08T04:34:21;102303.84;;;15.66;78.24
81372;BME280;70827;52.206;5.294;2023-10-08T04:36:47;102295.09;;;15.69;77.29
81372;BME280;70827;52.206;5.294;2023-10-08T04:39:14;102289.59;;;15.91;76.82
81372;BME280;70827;52.206;5.294;2023-10-08T04:41:40;102282.72;;;15.84;76.68
81372;BME280;70827;52.206;5.294;2023-10-08T04:44:06;102303.00;;;15.66;77.45
81372;BME280;70827;52.206;5.294;2023-10-08T04:46:31;102321.84;;;15.92;76.59
81372;BME280;70827;52.206;5.294;2023-10-08T04:48:59;102332.66;;;15.60;77.13
81372;BME280;70827;52.206;5.294;2023-10-08T04:51:25;102344.47;;;15.94;76.14
81372;BME280;70827;52.206;5.294;2023-10-08T04:53:51;102350.22;;;15.47;77.56
81372;BME280;70827;52.206;5.294;2023-10-08T04:56:16;102344.22;;;15.36;78.69
81372;BME280;70827;52.206;5.294;2023-10-08T04:58:42;102347.25;;;15.82;76.87
81372;BME280;70827;52.206;5.294;2023-10-08T05:01:08;102355.91;;;15.86;76.66
81372;BME280;70827;52.206;5.294;2023-10-08T05:03:33;102347.47;;;15.59;77.20
81372;BME280;70827;52.206;5.294;2023-10-08T05:06:02;102351.63;;;15.77;77.62
81372;BME280;70827;52.206;5.294;2023-10-08T05:08:27;102342.75;;;15.92;76.81
81372;BME280;70827;52.206;5.294;2023-10-08T05:10:53;102346.59;;;15.62;78.28
81372;BME280;70827;52.206;5.294;2023-10-08T05:13:18;102349.28;;;15.51;78.57
81372;BME280;70827;52.206;5.294;2023-10-08T05:15:44;102344.38;;;15.19;79.22
81372;BME280;70827;52.206;5.294;2023-10-08T05:18:10;102349.34;;;15.47;78.32
81372;BME280;70827;52.206;5.294;2023-10-08T05:20:36;102374.28;;;14.77;80.72
81372;BME280;70827;52.206;5.294;2023-10-08T05:23:09;102377.63;;;14.97;80.76
81372;BME280;70827;52.206;5.294;2023-10-08T05:25:35;102372.34;;;15.03;80.44
81372;BME280;70827;52.206;5.294;2023-10-08T05:28:06;102376.91;;;14.80;80.87
81372;BME280;70827;52.206;5.294;2023-10-08T05:30:32;102373.19;;;15.09;80.75
81372;BME280;70827;52.206;5.294;2023-10-08T05:32:58;102379.22;;;15.18;79.39
81372;BME280;70827;52.206;5.294;2023-10-08T05:35:24;102382.16;;;14.69;80.97
81372;BME280;70827;52.206;5.294;2023-10-08T05:37:50;102388.84;;;15.10;81.29
81372;BME280;70827;52.206;5.294;2023-10-08T05:40:18;102386.38;;;14.89;80.78
81372;BME280;70827;52.206;5.294;2023-10-08T05:42:44;102389.84;;;14.91;79.83
81372;BME280;70827;52.206;5.294;2023-10-08T05:45:09;102424.56;;;15.07;79.74
81372;BME280;70827;52.206;5.294;2023-10-08T05:47:35;102439.53;;;14.82;80.49
81372;BME280;70827;52.206;5.294;2023-10-08T05:50:01;102434.47;;;14.42;81.49
81372;BME280;70827;52.206;5.294;2023-10-08T05:52:26;102409.97;;;14.75;80.76
81372;BME280;70827;52.206;5.294;2023-10-08T05:54:52;102397.81;;;14.72;79.60
81372;BME280;70827;52.206;5.294;2023-10-08T05:57:20;102384.91;;;14.51;81.05
81372;BME280;70827;52.206;5.294;2023-10-08T05:59:47;102389.88;;;14.89;79.70
81372;BME280;70827;52.206;5.294;2023-10-08T06:02:13;102387.50;;;14.50;78.90
81372;BME280;70827;52.206;5.294;2023-10-08T06:04:38;102403.94;;;14.68;78.77
81372;BME280;70827;52.206;5.294;2023-10-08T06:07:04;102405.72;;;14.62;79.48
81372;BME280;70827;52.206;5.294;2023-10-08T06:09:29;102428.28;;;14.72;79.12
81372;BME280;70827;52.206;5.294;2023-10-08T06:11:55;102422.91;;;14.92;77.33
81372;BME280;70827;52.206;5.294;2023-10-08T06:14:23;102435.97;;;14.93;77.09
81372;BME280;70827;52.206;5.294;2023-10-08T06:16:49;102434.34;;;14.75;77.71
81372;BME280;70827;52.206;5.294;2023-10-08T06:19:14;102433.38;;;14.89;77.44
81372;BME280;70827;52.206;5.294;2023-10-08T06:21:41;102436.06;;;14.83;77.53
81372;BME280;70827;52.206;5.294;2023-10-08T06:24:07;102445.53;;;14.99;77.67
81372;BME280;70827;52.206;5.294;2023-10-08T06:26:33;102450.06;;;14.66;77.68
81372;BME280;70827;52.206;5.294;2023-10-08T06:28:59;102429.22;;;14.56;78.30
81372;BME280;70827;52.206;5.294;2023-10-08T06:31:27;102430.00;;;14.79;77.45
81372;BME280;70827;52.206;5.294;2023-10-08T06:33:52;102449.00;;;14.99;76.92
81372;BME280;70827;52.206;5.294;2023-10-08T06:36:18;102448.25;;;14.74;76.50
81372;BME280;70827;52.206;5.294;2023-10-08T06:38:46;102454.28;;;14.87;75.79
81372;BME280;70827;52.206;5.294;2023-10-08T06:41:12;102464.00;;;14.62;77.17
81372;BME280;70827;52.206;5.294;2023-10-08T06:43:38;102448.22;;;14.85;77.38
81372;BME280;70827;52.206;5.294;2023-10-08T06:46:04;102450.94;;;14.61;77.30
81372;BME280;70827;52.206;5.294;2023-10-08T06:48:33;102455.38;;;14.47;77.70
81372;BME280;70827;52.206;5.294;2023-10-08T06:50:59;102456.09;;;14.74;77.39
81372;BME280;70827;52.206;5.294;2023-10-08T06:53:24;102465.75;;;14.63;80.18
81372;BME280;70827;52.206;5.294;2023-10-08T06:55:50;102451.91;;;14.46;77.86
81372;BME280;70827;52.206;5.294;2023-10-08T06:58:16;102461.47;;;14.46;78.31
81372;BME280;70827;52.206;5.294;2023-10-08T07:00:41;102457.97;;;14.37;77.58
81372;BME280;70827;52.206;5.294;2023-10-08T07:03:07;102463.16;;;14.42;77.60
81372;BME280;70827;52.206;5.294;2023-10-08T07:05:36;102467.47;;;14.64;78.25
81372;BME280;70827;52.206;5.294;2023-10-08T07:08:02;102478.72;;;14.79;77.49
81372;BME280;70827;52.206;5.294;2023-10-08T07:10:28;102473.31;;;15.08;77.50
81372;BME280;70827;52.206;5.294;2023-10-08T07:12:53;102482.66;;;15.39;77.69
81372;BME280;70827;52.206;5.294;2023-10-08T07:15:19;102482.03;;;15.07;77.64
81372;BME280;70827;52.206;5.294;2023-10-08T07:17:44;102489.03;;;15.01;76.56
81372;BME280;70827;52.206;5.294;2023-10-08T07:20:10;102489.91;;;14.94;76.19
81372;BME280;70827;52.206;5.294;2023-10-08T07:22:39;102469.81;;;15.12;76.35
81372;BME280;70827;52.206;5.294;2023-10-08T07:25:05;102483.00;;;14.89;77.87
81372;BME280;70827;52.206;5.294;2023-10-08T07:27:31;102487.31;;;14.93;75.88
81372;BME280;70827;52.206;5.294;2023-10-08T07:29:57;102483.69;;;15.20;75.69
81372;BME280;70827;52.206;5.294;2023-10-08T07:32:22;102469.16;;;14.79;76.18
81372;BME280;70827;52.206;5.294;2023-10-08T07:34:48;102467.44;;;14.70;76.03
81372;BME280;70827;52.206;5.294;2023-10-08T07:37:13;102475.31;;;14.64;76.11
81372;BME280;70827;52.206;5.294;2023-10-08T07:39:41;102471.78;;;14.70;76.13
81372;BME280;70827;52.206;5.294;2023-10-08T07:42:07;102484.78;;;14.76;75.72
81372;BME280;70827;52.206;5.294;2023-10-08T07:44:33;102494.34;;;14.83;76.05
81372;BME280;70827;52.206;5.294;2023-10-08T07:46:59;102489.13;;;14.83;75.81
81372;BME280;70827;52.206;5.294;2023-10-08T07:49:24;102506.56;;;14.77;75.41
81372;BME280;70827;52.206;5.294;2023-10-08T07:51:50;102509.16;;;14.83;74.39
81372;BME280;70827;52.206;5.294;2023-10-08T07:54:17;102508.31;;;14.73;74.96
81372;BME280;70827;52.206;5.294;2023-10-08T07:56:46;102521.25;;;14.99;74.48
81372;BME280;70827;52.206;5.294;2023-10-08T07:59:12;102517.81;;;14.95;73.79
81372;BME280;70827;52.206;5.294;2023-10-08T08:01:37;102516.03;;;14.97;74.27
81372;BME280;70827;52.206;5.294;2023-10-08T08:04:03;102517.69;;;15.09;73.23
81372;BME280;70827;52.206;5.294;2023-10-08T08:06:29;102502.25;;;14.69;73.83
81372;BME280;70827;52.206;5.294;2023-10-08T08:08:54;102521.22;;;15.02;74.64
81372;BME280;70827;52.206;5.294;2023-10-08T08:11:20;102524.75;;;14.93;73.61
81372;BME280;70827;52.206;5.294;2023-10-08T08:13:48;102535.91;;;15.21;73.40
81372;BME280;70827;52.206;5.294;2023-10-08T08:16:14;102535.13;;;15.05;73.24
81372;BME280;70827;52.206;5.294;2023-10-08T08:18:40;102530.00;;;14.90;73.47
81372;BME280;70827;52.206;5.294;2023-10-08T08:21:09;102531.78;;;14.82;73.54
81372;BME280;70827;52.206;5.294;2023-10-08T08:23:35;102531.00;;;14.57;73.67
81372;BME280;70827;52.206;5.294;2023-10-08T08:26:00;102538.78;;;14.69;73.93
81372;BME280;70827;52.206;5.294;2023-10-08T08:28:26;102543.91;;;14.97;72.86
81372;BME280;70827;52.206;5.294;2023-10-08T08:30:54;102551.63;;;15.18;72.86
81372;BME280;70827;52.206;5.294;2023-10-08T08:33:20;102568.09;;;15.26;71.75
81372;BME280;70827;52.206;5.294;2023-10-08T08:35:46;102572.47;;;15.23;73.92
81372;BME280;70827;52.206;5.294;2023-10-08T08:38:11;102577.72;;;15.21;73.51
81372;BME280;70827;52.206;5.294;2023-10-08T08:40:37;102577.59;;;15.41;72.37
81372;BME280;70827;52.206;5.294;2023-10-08T08:43:03;102571.59;;;15.27;71.30
81372;BME280;70827;52.206;5.294;2023-10-08T08:45:30;102564.69;;;15.15;70.91
81372;BME280;70827;52.206;5.294;2023-10-08T08:47:59;102566.16;;;15.60;71.83
81372;BME280;70827;52.206;5.294;2023-10-08T08:50:25;102570.63;;;15.42;70.83
81372;BME280;70827;52.206;5.294;2023-10-08T08:52:51;102567.19;;;15.37;70.27
81372;BME280;70827;52.206;5.294;2023-10-08T08:55:17;102555.94;;;15.28;70.80
81372;BME280;70827;52.206;5.294;2023-10-08T08:57:43;102559.31;;;15.41;70.61
81372;BME280;70827;52.206;5.294;2023-10-08T09:00:10;102560.16;;;15.48;69.96
81372;BME280;70827;52.206;5.294;2023-10-08T09:02:37;102560.19;;;15.42;70.18
81372;BME280;70827;52.206;5.294;2023-10-08T09:05:06;102552.31;;;15.49;69.18
81372;BME280;70827;52.206;5.294;2023-10-08T09:07:32;102550.50;;;15.59;69.73
81372;BME280;70827;52.206;5.294;2023-10-08T09:09:57;102553.84;;;15.79;69.53
81372;BME280;70827;52.206;5.294;2023-10-08T09:12:23;102544.22;;;15.83;68.90
81372;BME280;70827;52.206;5.294;2023-10-08T09:14:48;102529.28;;;15.99;68.54
81372;BME280;70827;52.206;5.294;2023-10-08T09:17:16;102539.44;;;16.28;67.80
81372;BME280;70827;52.206;5.294;2023-10-08T09:19:41;102543.88;;;16.19;67.57
81372;BME280;70827;52.206;5.294;2023-10-08T09:22:11;102533.38;;;16.24;66.83
81372;BME280;70827;52.206;5.294;2023-10-08T09:24:37;102532.63;;;16.13;68.44
81372;BME280;70827;52.206;5.294;2023-10-08T09:27:03;102543.56;;;16.50;66.86
81372;BME280;70827;52.206;5.294;2023-10-08T09:29:29;102549.41;;;16.73;64.25
81372;BME280;70827;52.206;5.294;2023-10-08T09:31:56;102551.81;;;16.90;64.91
81372;BME280;70827;52.206;5.294;2023-10-08T09:34:22;102563.47;;;16.62;64.41
81372;BME280;70827;52.206;5.294;2023-10-08T09:36:51;102560.69;;;16.81;65.22
81372;BME280;70827;52.206;5.294;2023-10-08T09:39:20;102557.44;;;16.57;65.14
81372;BME280;70827;52.206;5.294;2023-10-08T09:41:46;102562.59;;;16.64;65.18
81372;BME280;70827;52.206;5.294;2023-10-08T09:44:12;102552.94;;;16.72;64.68
81372;BME280;70827;52.206;5.294;2023-10-08T09:46:38;102557.31;;;16.70;65.02
81372;BME280;70827;52.206;5.294;2023-10-08T09:49:05;102552.44;;;16.37;64.85
81372;BME280;70827;52.206;5.294;2023-10-08T09:51:31;102556.75;;;16.39;65.35
81372;BME280;70827;52.206;5.294;2023-10-08T09:54:03;102554.84;;;16.55;64.71
81372;BME280;70827;52.206;5.294;2023-10-08T09:56:33;102559.28;;;16.48;65.39
81372;BME280;70827;52.206;5.294;2023-10-08T09:58:58;102553.91;;;16.61;65.15
81372;BME280;70827;52.206;5.294;2023-10-08T10:01:24;102559.81;;;16.81;64.79
81372;BME280;70827;52.206;5.294;2023-10-08T10:03:50;102556.38;;;16.74;63.78
81372;BME280;70827;52.206;5.294;2023-10-08T10:06:17;102548.84;;;16.45;64.23
81372;BME280;70827;52.206;5.294;2023-10-08T10:08:43;102550.69;;;16.36;64.53
81372;BME280;70827;52.206;5.294;2023-10-08T10:11:10;102552.13;;;16.67;63.91
81372;BME280;70827;52.206;5.294;2023-10-08T10:13:39;102552.16;;;16.60;64.26
81372;BME280;70827;52.206;5.294;2023-10-08T10:16:05;102544.38;;;16.53;64.54
81372;BME280;70827;52.206;5.294;2023-10-08T10:18:33;102538.88;;;16.78;64.32
81372;BME280;70827;52.206;5.294;2023-10-08T10:21:00;102537.16;;;16.75;64.75
81372;BME280;70827;52.206;5.294;2023-10-08T10:23:42;102556.69;;;17.19;63.92
81372;BME280;70827;52.206;5.294;2023-10-08T10:26:21;102554.59;;;16.81;63.59
81372;BME280;70827;52.206;5.294;2023-10-08T10:31:33;102564.50;;;16.51;65.10
81372;BME280;70827;52.206;5.294;2023-10-08T10:33:59;102568.78;;;16.55;64.62
81372;BME280;70827;52.206;5.294;2023-10-08T10:36:29;102570.00;;;17.04;64.81
81372;BME280;70827;52.206;5.294;2023-10-08T10:38:54;102571.78;;;17.00;64.33
81372;BME280;70827;52.206;5.294;2023-10-08T10:41:20;102565.28;;;17.30;63.73
81372;BME280;70827;52.206;5.294;2023-10-08T10:43:46;102562.13;;;17.04;63.77
81372;BME280;70827;52.206;5.294;2023-10-08T10:46:14;102564.19;;;16.77;64.75
81372;BME280;70827;52.206;5.294;2023-10-08T10:48:40;102559.16;;;16.59;65.25
81372;BME280;70827;52.206;5.294;2023-10-08T10:51:08;102563.13;;;16.94;64.36
81372;BME280;70827;52.206;5.294;2023-10-08T10:53:33;102550.41;;;16.60;65.51
81372;BME280;70827;52.206;5.294;2023-10-08T10:55:59;102540.78;;;16.64;65.21
81372;BME280;70827;52.206;5.294;2023-10-08T10:58:25;102536.81;;;17.03;64.61
81372;BME280;70827;52.206;5.294;2023-10-08T11:00:51;102537.81;;;16.93;64.92
81372;BME280;70827;52.206;5.294;2023-10-08T11:03:19;102537.72;;;17.00;66.04
81372;BME280;70827;52.206;5.294;2023-10-08T11:05:48;102537.88;;;16.90;64.94
81372;BME280;70827;52.206;5.294;2023-10-08T11:08:15;102542.19;;;16.92;65.32
81372;BME280;70827;52.206;5.294;2023-10-08T11:10:42;102539.13;;;17.24;64.16
81372;BME280;70827;52.206;5.294;2023-10-08T11:13:08;102546.78;;;17.39;64.08
81372;BME280;70827;52.206;5.294;2023-10-08T11:15:34;102542.91;;;17.62;64.18
81372;BME280;70827;52.206;5.294;2023-10-08T11:18:00;102548.91;;;17.73;63.50
81372;BME280;70827;52.206;5.294;2023-10-08T11:20:29;102547.63;;;17.41;64.37
81372;BME280;70827;52.206;5.294;2023-10-08T11:22:54;102541.03;;;17.14;64.99
81372;BME280;70827;52.206;5.294;2023-10-08T11:25:21;102538.56;;;17.02;65.27
81372;BME280;70827;52.206;5.294;2023-10-08T11:27:46;102529.91;;;16.99;65.80
81372;BME280;70827;52.206;5.294;2023-10-08T11:30:12;102537.31;;;17.31;64.91
81372;BME280;70827;52.206;5.294;2023-10-08T11:32:39;102525.44;;;17.04;65.36
81372;BME280;70827;52.206;5.294;2023-10-08T11:35:06;102533.31;;;17.04;65.88
81372;BME280;70827;52.206;5.294;2023-10-08T11:37:34;102531.59;;;17.03;65.72
81372;BME280;70827;52.206;5.294;2023-10-08T11:40:00;102537.06;;;16.84;66.66
81372;BME280;70827;52.206;5.294;2023-10-08T11:42:26;102529.19;;;16.86;66.58
81372;BME280;70827;52.206;5.294;2023-10-08T11:44:51;102537.75;;;16.99;66.12
81372;BME280;70827;52.206;5.294;2023-10-08T11:47:17;102519.53;;;16.90;66.58
81372;BME280;70827;52.206;5.294;2023-10-08T11:49:42;102523.94;;;16.88;66.83
81372;BME280;70827;52.206;5.294;2023-10-08T11:52:11;102512.69;;;16.78;67.43
81372;BME280;70827;52.206;5.294;2023-10-08T11:54:39;102527.47;;;16.85;66.92
81372;BME280;70827;52.206;5.294;2023-10-08T11:57:05;102520.41;;;16.90;66.59
81372;BME280;70827;52.206;5.294;2023-10-08T11:59:30;102504.69;;;16.89;66.73
81372;BME280;70827;52.206;5.294;2023-10-08T12:01:56;102498.72;;;16.79;66.72
81372;BME280;70827;52.206;5.294;2023-10-08T12:04:21;102505.47;;;16.95;67.25
81372;BME280;70827;52.206;5.294;2023-10-08T12:06:47;102493.06;;;17.08;66.61
81372;BME280;70827;52.206;5.294;2023-10-08T12:09:13;102478.47;;;16.92;67.20
81372;BME280;70827;52.206;5.294;2023-10-08T12:11:41;102478.91;;;17.21;66.74
81372;BME280;70827;52.206;5.294;2023-10-08T12:14:07;102468.56;;;17.13;66.64
81372;BME280;70827;52.206;5.294;2023-10-08T12:16:32;102466.28;;;16.89;68.10
81372;BME280;70827;52.206;5.294;2023-10-08T12:18:58;102464.56;;;16.87;68.09
81372;BME280;70827;52.206;5.294;2023-10-08T12:21:23;102468.03;;;16.89;66.95
81372;BME280;70827;52.206;5.294;2023-10-08T12:23:49;102466.06;;;17.04;66.96
81372;BME280;70827;52.206;5.294;2023-10-08T12:26:15;102456.63;;;16.93;67.80
81372;BME280;70827;52.206;5.294;2023-10-08T12:28:43;102458.22;;;17.03;67.43
81372;BME280;70827;52.206;5.294;2023-10-08T12:31:09;102456.81;;;16.79;68.29
81372;BME280;70827;52.206;5.294;2023-10-08T12:33:34;102464.81;;;16.68;68.75
81372;BME280;70827;52.206;5.294;2023-10-08T12:36:00;102451.09;;;17.11;67.86
81372;BME280;70827;52.206;5.294;2023-10-08T12:38:26;102441.88;;;16.87;68.11
81372;BME280;70827;52.206;5.294;2023-10-08T12:40:51;102450.00;;;16.66;68.76
81372;BME280;70827;52.206;5.294;2023-10-08T12:43:17;102441.19;;;16.73;68.50
81372;BME280;70827;52.206;5.294;2023-10-08T12:45:46;102427.31;;;16.65;69.15
81372;BME280;70827;52.206;5.294;2023-10-08T12:48:12;102430.63;;;16.80;68.48